Terminal Aerodrome Forecast
Issued by NWS Cleveland, OH

Home | Current Version | Previous Version | Text Only | Print | Product List | Glossary Off
Versions: 1 2 3 4 5 6 7 8 9 10 11 12 13 14 15 16 17 18

000
FTUS41 KCLE 160300 AAA
TAFCAK
TAF AMD
KCAK 160353Z 1604/1624 35008KT 6SM -SHRA BR SCT012 BKN025
      TEMPO 1604/1605 30004KT 4SM RA BR BKN025
     FM160500 33004KT 5SM -SHRA BR BKN007 OVC012
     FM160700 32004KT 4SM BR OVC006
     FM161300 32004KT P6SM BKN012
     FM161900 30006KT P6SM BKN030=

USA.gov is the U.S. government's official web portal to all federal, state and local government web resources and services.